Time;durP1;ratioP1;P1;durP2;ratioP2;P2;SDS_P1;SDS_P2;PMS_P1;PMS_P2;Temp;Humidity;BMP_temperature;BMP_pressure;BME280_temperature;BME280_humidity;BME280_pressure;Samples;Min_cycle;Max_cycle;Signal;HPM_P1;HPM_P2
2023/10/14 00:02:21;;;;;;;3.65;0.95;;;13.50;99.90;;;;;;5130659;28;20027;-61
2023/10/14 00:04:46;;;;;;;4.53;1.30;;;13.50;99.90;;;;;;5112162;28;20079;-62
2023/10/14 00:07:17;;;;;;;2.85;0.88;;;13.50;99.90;;;;;;5111866;27;20043;-62
2023/10/14 00:09:43;;;;;;;3.00;0.70;;;13.50;99.90;;;;;;5115904;27;20031;-62
2023/10/14 00:12:16;;;;;;;5.65;0.90;;;13.50;99.90;;;;;;5116180;27;20043;-62
2023/10/14 00:14:45;;;;;;;3.53;0.70;;;13.40;99.90;;;;;;5116230;27;20043;-62
2023/10/14 00:17:18;;;;;;;5.22;0.75;;;13.40;99.90;;;;;;5116530;27;20363;-63
2023/10/14 00:19:49;;;;;;;4.80;1.17;;;13.40;99.90;;;;;;5099200;27;20107;-62
2023/10/14 00:22:17;;;;;;;4.85;0.90;;;13.40;99.90;;;;;;5112628;28;20139;-62
2023/10/14 00:24:43;;;;;;;2.33;0.60;;;13.30;99.90;;;;;;5112104;28;20422;-63
2023/10/14 00:27:09;;;;;;;5.35;0.90;;;13.30;99.90;;;;;;5111739;28;20082;-62
2023/10/14 00:29:35;;;;;;;7.88;0.90;;;13.30;99.90;;;;;;5113792;28;20371;-63
2023/10/14 00:32:03;;;;;;;4.50;0.80;;;13.30;99.90;;;;;;5095666;28;20496;-62
2023/10/14 00:34:29;;;;;;;4.80;0.75;;;13.20;99.90;;;;;;5112191;28;20115;-63
2023/10/14 00:36:56;;;;;;;3.83;0.88;;;13.10;99.90;;;;;;5113751;28;20036;-63
2023/10/14 00:39:28;;;;;;;6.90;1.10;;;13.10;99.90;;;;;;5111715;28;20051;-62
2023/10/14 00:41:55;;;;;;;;;;;13.10;99.90;;;;;;5113543;28;20031;-62
2023/10/14 00:44:24;;;;;;;7.10;1.05;;;13.00;99.90;;;;;;5112644;28;20268;-62
2023/10/14 00:46:51;;;;;;;8.55;1.10;;;13.00;99.90;;;;;;5112252;28;20459;-63
2023/10/14 00:49:18;;;;;;;4.25;0.80;;;12.90;99.90;;;;;;5112190;28;20039;-63
2023/10/14 00:51:49;;;;;;;5.35;1.10;;;12.90;99.90;;;;;;5112015;28;20116;-63
2023/10/14 00:54:58;;;;;;;4.97;0.82;;;12.90;99.90;;;;;;5112215;28;20376;-62
2023/10/14 00:57:20;;;;;;;8.45;1.10;;;12.80;99.90;;;;;;5100757;28;20155;-63
2023/10/14 00:59:54;;;;;;;6.57;1.00;;;12.90;99.90;;;;;;5111572;28;20105;-62
2023/10/14 01:02:29;;;;;;;8.50;1.50;;;12.80;99.90;;;;;;5111966;28;20559;-63
2023/10/14 01:04:56;;;;;;;5.50;1.00;;;12.80;99.90;;;;;;5113171;28;20039;-63
2023/10/14 01:07:23;;;;;;;5.43;1.15;;;12.80;99.90;;;;;;5111734;28;20448;-62
2023/10/14 01:09:53;;;;;;;5.28;0.90;;;12.80;99.90;;;;;;5093832;28;20047;-62
2023/10/14 01:12:26;;;;;;;6.25;1.20;;;12.80;99.90;;;;;;5111856;28;20035;-63
2023/10/14 01:14:53;;;;;;;6.50;1.10;;;12.70;99.90;;;;;;5111471;28;20046;-62
2023/10/14 01:17:32;;;;;;;9.05;1.23;;;12.70;99.90;;;;;;5110839;28;20122;-63
2023/10/14 01:22:40;;;;;;;6.63;1.05;;;12.60;99.90;;;;;;5114815;27;20046;-62
2023/10/14 01:25:12;;;;;;;7.97;1.40;;;12.60;99.90;;;;;;5133255;27;20118;-63
2023/10/14 01:27:38;;;;;;;7.72;1.55;;;12.50;99.90;;;;;;5115215;27;20107;-63
2023/10/14 01:30:10;;;;;;;8.70;2.13;;;12.40;99.90;;;;;;5114020;27;20095;-63
2023/10/14 01:37:54;;;;;;;7.20;1.30;;;12.30;99.90;;;;;;5114407;27;20116;-62
2023/10/14 01:42:50;;;;;;;6.15;1.10;;;12.20;99.90;;;;;;5114134;27;20054;-64
2023/10/14 01:45:20;;;;;;;6.45;1.27;;;12.20;99.90;;;;;;5131633;27;20129;-63
2023/10/14 01:48:00;;;;;;;6.72;1.27;;;12.10;99.90;;;;;;5131469;27;20402;-62
2023/10/14 01:50:26;;;;;;;9.63;1.80;;;12.00;99.90;;;;;;5113813;27;20487;-61
2023/10/14 01:52:52;;;;;;;9.45;1.40;;;12.00;99.90;;;;;;5114061;27;20055;-61
2023/10/14 01:55:20;;;;;;;10.93;1.60;;;11.90;99.90;;;;;;5114623;27;20465;-63
2023/10/14 01:57:47;;;;;;;8.50;1.63;;;11.90;99.90;;;;;;5114389;27;20047;-62
2023/10/14 02:00:58;;;;;;;9.85;1.40;;;11.80;99.90;;;;;;5132606;27;20049;-63
2023/10/14 02:03:06;;;;;;;12.25;1.55;;;11.80;99.90;;;;;;5103223;27;20513;-62
2023/10/14 02:05:40;;;;;;;11.35;1.55;;;11.70;99.90;;;;;;5096823;27;20047;-63
2023/10/14 02:08:15;;;;;;;10.68;1.90;;;11.70;99.90;;;;;;5131759;27;20108;-62
2023/10/14 02:10:46;;;;;;;8.38;1.27;;;11.60;99.90;;;;;;5095842;27;20043;-62
2023/10/14 02:13:15;;;;;;;11.10;1.70;;;11.60;99.90;;;;;;5113752;27;20152;-62
2023/10/14 02:15:46;;;;;;;8.15;2.08;;;11.60;99.90;;;;;;5113716;27;20050;-63
2023/10/14 02:18:16;;;;;;;5.85;1.20;;;11.60;99.90;;;;;;5113646;27;20042;-62
2023/10/14 02:20:56;;;;;;;11.05;1.55;;;11.50;99.90;;;;;;5112885;27;20062;-63
2023/10/14 02:23:27;;;;;;;6.93;1.70;;;11.50;99.90;;;;;;5112805;27;20043;-62
2023/10/14 02:26:00;;;;;;;7.90;1.40;;;11.50;99.90;;;;;;5132103;27;20439;-63
2023/10/14 02:28:42;;;;;;;7.65;1.40;;;11.40;99.90;;;;;;5132203;27;20078;-62
2023/10/14 02:31:16;;;;;;;7.05;1.50;;;11.30;99.90;;;;;;5131284;27;20408;-62
2023/10/14 02:33:45;;;;;;;9.65;1.27;;;11.30;99.90;;;;;;5113370;27;20086;-62
2023/10/14 02:36:20;;;;;;;10.35;1.45;;;11.30;99.90;;;;;;5112166;27;20035;-62
2023/10/14 02:38:55;;;;;;;6.95;1.60;;;11.20;99.90;;;;;;5131946;27;20023;-63
2023/10/14 02:41:22;;;;;;;8.25;1.65;;;11.10;99.90;;;;;;5113021;27;20082;-62
2023/10/14 02:43:51;;;;;;;8.75;1.52;;;11.10;99.90;;;;;;5113071;27;20031;-62
2023/10/14 02:46:20;;;;;;;11.13;1.95;;;11.00;99.90;;;;;;5113015;27;20054;-62
2023/10/14 02:48:52;;;;;;;9.32;1.92;;;11.00;99.90;;;;;;5113465;27;20047;-63
2023/10/14 02:51:29;;;;;;;;;;;10.90;99.90;;;;;;5113175;27;20074;-63
2023/10/14 02:53:56;;;;;;;7.95;1.40;;;10.90;99.90;;;;;;5096140;27;19915;-62
2023/10/14 02:56:32;;;;;;;6.75;1.27;;;10.90;99.90;;;;;;5113067;27;20164;-62
2023/10/14 02:58:58;;;;;;;5.63;1.15;;;10.80;99.90;;;;;;5131212;27;20393;-62
2023/10/14 03:01:31;;;;;;;6.07;1.70;;;10.80;99.90;;;;;;5113988;27;20043;-62
2023/10/14 03:04:07;;;;;;;10.20;1.70;;;10.80;99.90;;;;;;5112690;27;20046;-62
2023/10/14 03:06:33;;;;;;;9.35;1.30;;;10.80;99.90;;;;;;5095594;27;20092;-62
2023/10/14 03:08:59;;;;;;;9.68;1.30;;;10.70;99.90;;;;;;5095453;27;20494;-62
2023/10/14 03:11:26;;;;;;;7.03;1.10;;;10.70;99.90;;;;;;5112648;27;20126;-62
2023/10/14 03:13:53;;;;;;;5.00;1.17;;;10.70;99.90;;;;;;5112923;27;20050;-63
2023/10/14 03:16:18;;;;;;;9.45;1.48;;;10.70;99.90;;;;;;5112151;27;20079;-62
2023/10/14 03:18:44;;;;;;;13.73;2.05;;;10.60;99.90;;;;;;5112911;28;20494;-62
2023/10/14 03:21:22;;;;;;;9.93;1.42;;;10.60;99.90;;;;;;5112525;27;20134;-62
2023/10/14 03:23:47;;;;;;;10.80;1.70;;;10.60;99.90;;;;;;5095519;27;20494;-62
2023/10/14 03:26:13;;;;;;;8.77;1.40;;;10.50;99.90;;;;;;5131039;27;20795;-63
2023/10/14 03:28:44;;;;;;;9.90;1.73;;;10.50;99.90;;;;;;5112410;27;20088;-63
2023/10/14 03:31:15;;;;;;;11.40;1.80;;;10.50;99.90;;;;;;5112522;27;20042;-63
2023/10/14 03:33:43;;;;;;;7.43;1.35;;;10.40;99.90;;;;;;5130422;27;20096;-62
2023/10/14 03:36:15;;;;;;;8.25;1.60;;;10.40;99.90;;;;;;5111242;27;20051;-62
2023/10/14 03:38:46;;;;;;;9.13;1.33;;;10.40;99.90;;;;;;5112521;28;20111;-62
2023/10/14 03:44:05;;;;;;;12.02;1.40;;;10.40;99.90;;;;;;5111968;28;20035;-62
2023/10/14 03:48:56;;;;;;;6.18;1.25;;;10.40;99.90;;;;;;5112144;28;20043;-62
2023/10/14 03:51:30;;;;;;;10.20;1.52;;;10.40;99.90;;;;;;5130977;28;20424;-62
2023/10/14 03:53:58;;;;;;;6.82;1.63;;;10.40;99.90;;;;;;5130666;28;20082;-62
2023/10/14 03:56:29;;;;;;;6.95;1.10;;;10.40;99.90;;;;;;5111973;28;20082;-62
2023/10/14 03:58:57;;;;;;;9.65;1.63;;;10.40;99.90;;;;;;5130741;28;20456;-62
2023/10/14 04:01:54;;;;;;;9.02;1.38;;;10.40;99.90;;;;;;5112246;28;20075;-62
2023/10/14 04:04:17;;;;;;;8.88;1.58;;;10.40;99.90;;;;;;5129808;28;20065;-62
2023/10/14 04:06:51;;;;;;;11.05;1.50;;;10.40;99.90;;;;;;5130505;28;20066;-62
2023/10/14 04:09:23;;;;;;;7.53;1.27;;;10.40;99.90;;;;;;5112284;28;20486;-62
2023/10/14 04:11:52;;;;;;;8.38;1.33;;;10.30;99.90;;;;;;5112424;28;20550;-61
2023/10/14 04:14:22;;;;;;;9.57;1.92;;;10.30;99.90;;;;;;5130620;28;20122;-63
2023/10/14 04:16:49;;;;;;;9.30;1.50;;;10.30;99.90;;;;;;5111628;28;20035;-63
2023/10/14 04:19:27;;;;;;;9.32;1.65;;;10.30;99.90;;;;;;5112031;28;20039;-62
2023/10/14 04:21:59;;;;;;;7.80;2.13;;;10.30;99.90;;;;;;5111902;28;20051;-63
2023/10/14 04:24:45;;;;;;;9.93;1.23;;;10.30;99.90;;;;;;5094283;28;20047;-62
2023/10/14 04:27:30;;;;;;;7.28;1.40;;;10.20;99.90;;;;;;5111626;28;20092;-62
2023/10/14 04:30:11;;;;;;;7.35;1.25;;;10.20;99.90;;;;;;5112361;28;20486;-63
2023/10/14 04:32:42;;;;;;;6.93;1.20;;;10.20;99.90;;;;;;5111996;28;20594;-62
2023/10/14 04:35:08;;;;;;;7.87;1.57;;;10.20;99.90;;;;;;5111802;28;20069;-63
2023/10/14 04:37:50;;;;;;;8.50;1.35;;;10.10;99.90;;;;;;5129822;28;20292;-62
2023/10/14 04:40:46;;;;;;;11.40;1.50;;;10.10;99.90;;;;;;5111854;28;20038;-62
2023/10/14 04:45:37;;;;;;;7.50;1.42;;;10.10;99.90;;;;;;5112037;28;20039;-63
2023/10/14 04:48:07;;;;;;;10.45;1.10;;;10.10;99.90;;;;;;5111454;28;20062;-61
2023/10/14 04:50:38;;;;;;;8.18;1.58;;;10.10;99.90;;;;;;5111608;28;20072;-62
2023/10/14 04:53:05;;;;;;;11.52;1.95;;;10.10;99.90;;;;;;5111862;27;20043;-62
2023/10/14 04:55:36;;;;;;;8.90;1.30;;;10.00;99.90;;;;;;5115225;27;20039;-62
2023/10/14 05:00:42;;;;;;;7.90;1.52;;;10.10;99.90;;;;;;5115267;27;20073;-63
2023/10/14 05:03:18;;;;;;;10.75;1.95;;;10.00;99.90;;;;;;5097691;27;20043;-63
2023/10/14 05:06:39;;;;;;;7.78;1.13;;;10.00;99.90;;;;;;5113717;27;21576;-62
2023/10/14 05:08:51;;;;;;;9.40;1.40;;;10.00;99.90;;;;;;5108827;27;20047;-62
2023/10/14 05:11:22;;;;;;;10.45;1.65;;;10.00;99.90;;;;;;5114755;27;20101;-62
2023/10/14 05:16:53;;;;;;;7.60;1.35;;;10.10;99.90;;;;;;5114858;27;20050;-63
2023/10/14 05:19:24;;;;;;;10.27;1.38;;;10.00;99.90;;;;;;5108267;27;20053;-62
2023/10/14 05:21:57;;;;;;;7.97;2.10;;;10.00;99.90;;;;;;5098002;27;20410;-61
2023/10/14 05:24:23;;;;;;;11.57;1.52;;;10.00;99.90;;;;;;5118271;27;20129;-61
2023/10/14 05:26:58;;;;;;;10.38;1.85;;;10.00;99.90;;;;;;5098552;27;20172;-61
2023/10/14 05:29:28;;;;;;;10.18;1.58;;;10.00;99.90;;;;;;5115327;27;20178;-62
2023/10/14 05:32:10;;;;;;;10.23;1.40;;;10.00;99.90;;;;;;5101807;27;20122;-63
2023/10/14 05:34:37;;;;;;;12.82;2.53;;;10.00;99.90;;;;;;5096305;27;20138;-62
2023/10/14 05:37:07;;;;;;;10.23;1.65;;;10.00;99.90;;;;;;5098079;27;20057;-63
2023/10/14 05:39:37;;;;;;;10.20;1.60;;;10.00;99.90;;;;;;5097285;27;20038;-61
2023/10/14 05:42:13;;;;;;;8.38;1.65;;;10.00;99.90;;;;;;5098742;27;20523;-62
2023/10/14 05:44:46;;;;;;;9.98;1.70;;;10.00;99.90;;;;;;5098754;27;20108;-62
2023/10/14 05:47:13;;;;;;;10.10;1.60;;;10.00;99.90;;;;;;5115268;27;20496;-63
2023/10/14 05:49:38;;;;;;;9.75;1.80;;;10.00;99.90;;;;;;5114497;27;20043;-62
2023/10/14 05:52:04;;;;;;;10.75;1.50;;;10.00;99.90;;;;;;5097095;27;20383;-63
2023/10/14 05:54:30;;;;;;;11.05;1.42;;;10.00;99.90;;;;;;5095340;27;20144;-63
2023/10/14 05:56:55;;;;;;;9.32;1.52;;;10.00;99.90;;;;;;5094891;27;20039;-63
2023/10/14 05:59:21;;;;;;;11.18;1.85;;;10.00;99.90;;;;;;5091541;27;20058;-62
2023/10/14 06:01:47;;;;;;;12.10;1.70;;;10.00;99.90;;;;;;5097388;27;20050;-62
2023/10/14 06:04:15;;;;;;;12.20;1.92;;;10.00;99.90;;;;;;5092354;27;20406;-61
2023/10/14 06:06:42;;;;;;;12.80;1.58;;;10.00;99.90;;;;;;5096056;27;20144;-62
2023/10/14 06:09:09;;;;;;;12.88;2.30;;;9.90;99.90;;;;;;5092163;27;20031;-62
2023/10/14 06:11:35;;;;;;;9.80;2.08;;;9.90;99.90;;;;;;5092794;27;20166;-62
2023/10/14 06:14:03;;;;;;;11.60;1.67;;;9.90;99.90;;;;;;5075594;27;20490;-62
2023/10/14 06:16:31;;;;;;;10.93;1.88;;;9.90;99.90;;;;;;5097095;27;20074;-62
2023/10/14 06:18:59;;;;;;;8.05;1.27;;;9.90;99.90;;;;;;5092297;27;20046;-62
2023/10/14 06:21:27;;;;;;;13.65;2.45;;;9.90;99.90;;;;;;5096561;27;20051;-61
2023/10/14 06:23:56;;;;;;;9.25;2.28;;;9.90;99.90;;;;;;5091404;27;20122;-62
2023/10/14 06:26:21;;;;;;;13.88;2.42;;;9.90;99.90;;;;;;5097556;27;20133;-62
2023/10/14 06:28:49;;;;;;;11.70;1.75;;;9.90;99.90;;;;;;5092142;27;20039;-62
2023/10/14 06:31:18;;;;;;;11.13;2.05;;;9.90;99.90;;;;;;5093709;27;20043;-61
2023/10/14 06:33:45;;;;;;;11.75;1.73;;;10.00;99.90;;;;;;5096483;27;20056;-62
2023/10/14 06:36:14;;;;;;;14.13;2.88;;;10.00;99.90;;;;;;5100552;27;20178;-62
2023/10/14 06:38:46;;;;;;;9.27;1.92;;;10.00;99.90;;;;;;5080557;27;20107;-63
2023/10/14 06:41:17;;;;;;;14.00;1.98;;;10.00;99.90;;;;;;5096854;27;20134;-62
2023/10/14 06:43:55;;;;;;;10.43;1.92;;;10.10;99.90;;;;;;5094287;27;20042;-62
2023/10/14 06:46:21;;;;;;;10.00;1.70;;;10.10;99.90;;;;;;5098824;27;20055;-62
2023/10/14 06:48:52;;;;;;;11.32;2.05;;;10.20;99.90;;;;;;5096878;27;20031;-62
2023/10/14 06:51:19;;;;;;;12.27;1.52;;;10.20;99.90;;;;;;5097151;27;20543;-62
2023/10/14 06:53:45;;;;;;;14.82;1.95;;;10.20;99.90;;;;;;5096705;27;20133;-62
2023/10/14 06:56:11;;;;;;;11.02;1.63;;;10.30;99.90;;;;;;5095293;27;20055;-62
2023/10/14 06:58:39;;;;;;;10.35;2.25;;;10.40;99.90;;;;;;5104871;27;20110;-62
2023/10/14 07:01:06;;;;;;;8.13;1.45;;;10.40;99.90;;;;;;5112559;27;20043;-62
2023/10/14 07:03:33;;;;;;;13.40;1.70;;;10.50;99.90;;;;;;5131218;27;20118;-62
2023/10/14 07:05:59;;;;;;;10.82;1.88;;;10.50;99.90;;;;;;5112794;27;20321;-61
2023/10/14 07:08:27;;;;;;;11.32;1.80;;;10.60;99.90;;;;;;5112700;27;20498;-63
2023/10/14 07:10:55;;;;;;;12.57;1.80;;;10.60;99.90;;;;;;5113511;27;20397;-61
2023/10/14 07:13:22;;;;;;;14.45;2.00;;;10.70;99.90;;;;;;5112925;27;20780;-62
2023/10/14 07:15:51;;;;;;;9.82;1.27;;;10.70;99.90;;;;;;5112735;27;20035;-61
2023/10/14 07:18:23;;;;;;;13.82;1.73;;;10.80;99.90;;;;;;5130720;27;20102;-62
2023/10/14 07:21:03;;;;;;;8.60;1.95;;;10.90;99.90;;;;;;5111637;27;20082;-62
2023/10/14 07:23:34;;;;;;;10.73;1.63;;;11.00;99.90;;;;;;5111680;27;20122;-62
2023/10/14 07:26:09;;;;;;;8.55;1.60;;;11.00;99.90;;;;;;5112181;28;20122;-63
2023/10/14 07:28:36;;;;;;;12.40;2.47;;;11.10;99.90;;;;;;5112311;27;20031;-62
2023/10/14 07:31:02;;;;;;;10.30;1.60;;;11.20;99.90;;;;;;5112013;27;20039;-63
2023/10/14 07:33:28;;;;;;;9.13;1.40;;;11.20;99.90;;;;;;5131278;27;20477;-63
2023/10/14 07:35:58;;;;;;;11.02;1.83;;;11.30;99.90;;;;;;5112368;28;20078;-62
2023/10/14 07:38:23;;;;;;;12.35;2.40;;;11.40;99.90;;;;;;5112496;27;20111;-62
2023/10/14 07:40:49;;;;;;;10.70;2.05;;;11.50;99.90;;;;;;5112188;28;20135;-62
2023/10/14 07:43:15;;;;;;;8.00;1.48;;;11.50;99.90;;;;;;5130647;28;20031;-63
2023/10/14 07:45:43;;;;;;;14.07;2.58;;;11.70;99.90;;;;;;5112538;28;20043;-62
2023/10/14 07:48:12;;;;;;;8.60;1.38;;;11.70;99.90;;;;;;5130959;28;20371;-62
2023/10/14 07:50:44;;;;;;;11.70;2.05;;;11.80;99.90;;;;;;5112083;28;20039;-62
2023/10/14 07:53:13;;;;;;;10.88;1.92;;;11.90;99.90;;;;;;5130798;28;20035;-62
2023/10/14 07:55:39;;;;;;;8.48;1.80;;;12.00;99.90;;;;;;5112016;28;20047;-62
2023/10/14 07:58:08;;;;;;;11.98;2.10;;;12.10;99.90;;;;;;5112566;28;20024;-63
2023/10/14 08:00:48;;;;;;;11.32;2.58;;;12.10;99.90;;;;;;5112262;28;20042;-62
2023/10/14 08:03:16;;;;;;;10.57;2.30;;;12.20;99.90;;;;;;5111990;28;20045;-61
2023/10/14 08:05:44;;;;;;;12.43;2.15;;;12.30;99.90;;;;;;5095262;28;20038;-62
2023/10/14 08:08:11;;;;;;;17.25;2.75;;;12.40;99.90;;;;;;5130606;28;20039;-64
2023/10/14 08:10:41;;;;;;;13.27;2.00;;;12.40;99.90;;;;;;5110953;28;20043;-62
2023/10/14 08:13:08;;;;;;;11.25;1.88;;;12.50;99.90;;;;;;5130222;28;20461;-62
2023/10/14 08:15:35;;;;;;;11.25;1.80;;;12.60;99.90;;;;;;5130189;28;20043;-62
2023/10/14 08:18:04;;;;;;;11.32;2.00;;;12.80;99.90;;;;;;5111935;28;22019;-62
2023/10/14 08:20:34;;;;;;;10.18;1.88;;;12.90;99.90;;;;;;5090483;28;20051;-63
2023/10/14 08:23:00;;;;;;;12.77;2.72;;;13.00;99.90;;;;;;5095204;28;20052;-62
2023/10/14 08:25:28;;;;;;;9.40;1.65;;;12.90;99.90;;;;;;5096791;28;20126;-62
2023/10/14 08:27:55;;;;;;;10.65;2.35;;;12.80;99.90;;;;;;5103635;28;20086;-63
2023/10/14 08:30:24;;;;;;;10.88;1.73;;;12.70;99.90;;;;;;5115685;27;20043;-62
2023/10/14 08:32:52;;;;;;;16.65;2.08;;;12.70;99.90;;;;;;5101256;27;20053;-62
2023/10/14 08:35:19;;;;;;;9.00;1.95;;;12.70;99.90;;;;;;5084050;27;20047;-62
2023/10/14 08:37:50;;;;;;;15.23;2.22;;;12.60;99.90;;;;;;5091293;27;20051;-62
2023/10/14 08:40:22;;;;;;;11.27;2.15;;;12.60;99.90;;;;;;5100153;27;20085;-62
2023/10/14 08:42:51;;;;;;;11.23;1.87;;;12.50;99.90;;;;;;5101926;27;20083;-62
2023/10/14 08:45:22;;;;;;;12.88;1.73;;;12.40;99.90;;;;;;5115057;27;20289;-62
2023/10/14 08:47:50;;;;;;;11.75;1.60;;;12.20;99.90;;;;;;5083664;27;20046;-63
2023/10/14 08:50:21;;;;;;;7.82;1.65;;;12.00;99.90;;;;;;5121063;27;20118;-62
2023/10/14 08:52:49;;;;;;;7.85;1.60;;;11.90;99.90;;;;;;5115057;27;20110;-62
2023/10/14 08:55:16;;;;;;;11.00;2.30;;;11.80;99.90;;;;;;5115243;27;20035;-62
2023/10/14 08:57:46;;;;;;;11.00;1.73;;;11.70;99.90;;;;;;5115795;27;20470;-62
2023/10/14 09:00:23;;;;;;;10.00;1.60;;;11.70;99.90;;;;;;5115763;27;20039;-62
2023/10/14 09:02:53;;;;;;;6.55;1.30;;;11.70;99.90;;;;;;5115730;27;20110;-62
2023/10/14 09:05:18;;;;;;;9.35;2.25;;;11.70;99.90;;;;;;5133755;27;20031;-62
2023/10/14 09:07:49;;;;;;;8.40;1.75;;;11.60;99.90;;;;;;5133099;27;20503;-62
2023/10/14 09:10:20;;;;;;;10.95;2.40;;;11.50;99.90;;;;;;5115265;27;20043;-62
2023/10/14 09:13:05;;;;;;;9.68;1.30;;;11.50;99.90;;;;;;5133514;27;20370;-62
2023/10/14 09:15:33;;;;;;;12.90;2.10;;;11.60;99.90;;;;;;5115595;27;20393;-63
2023/10/14 09:18:00;;;;;;;9.85;1.70;;;11.50;99.90;;;;;;5114772;27;20035;-62
2023/10/14 09:20:37;;;;;;;9.23;1.30;;;11.70;99.90;;;;;;5114059;27;20043;-62
2023/10/14 09:23:16;;;;;;;16.05;2.25;;;12.20;99.90;;;;;;5115279;27;20096;-62
2023/10/14 09:25:53;;;;;;;10.80;2.08;;;12.40;99.90;;;;;;5133491;27;20031;-62
2023/10/14 09:28:20;;;;;;;10.35;1.70;;;12.60;99.90;;;;;;5114686;27;20095;-62
2023/10/14 09:30:54;;;;;;;7.68;1.45;;;12.40;99.90;;;;;;5133417;27;20118;-62
2023/10/14 09:33:31;;;;;;;12.35;1.75;;;12.50;99.90;;;;;;5115044;27;20473;-62
2023/10/14 09:36:20;;;;;;;8.18;2.35;;;12.60;99.90;;;;;;5114614;27;20050;-62
2023/10/14 09:38:51;;;;;;;9.32;1.70;;;12.80;99.90;;;;;;5115051;27;20039;-62
2023/10/14 09:41:17;;;;;;;10.30;2.05;;;13.30;99.90;;;;;;5132355;27;20035;-62
2023/10/14 09:43:45;;;;;;;9.93;1.70;;;13.70;99.90;;;;;;5133280;27;20505;-62
2023/10/14 09:46:12;;;;;;;9.98;1.80;;;14.00;99.90;;;;;;5112937;27;20057;-62
2023/10/14 09:48:38;;;;;;;8.02;1.55;;;14.20;99.90;;;;;;5112184;27;20139;-63
2023/10/14 09:51:06;;;;;;;10.48;2.10;;;14.50;99.90;;;;;;5098739;27;20129;-62
2023/10/14 09:53:33;;;;;;;9.55;1.60;;;14.60;99.90;;;;;;5114605;27;20035;-63
2023/10/14 09:56:04;;;;;;;6.45;1.30;;;14.50;99.90;;;;;;5099332;27;20043;-62
2023/10/14 09:58:34;;;;;;;5.93;1.02;;;13.90;99.90;;;;;;5115514;27;20039;-62
2023/10/14 10:01:01;;;;;;;5.57;1.60;;;13.30;99.90;;;;;;5116126;27;20134;-62
2023/10/14 10:03:30;;;;;;;5.10;1.02;;;12.40;99.90;;;;;;5114344;27;20436;-63
2023/10/14 10:06:11;;;;;;;7.82;1.85;;;11.90;99.90;;;;;;5115108;27;20123;-62
2023/10/14 10:09:04;;;;;;;7.68;1.30;;;11.70;99.90;;;;;;5124879;27;20039;-62
2023/10/14 10:11:35;;;;;;;7.55;1.30;;;11.80;99.90;;;;;;5113964;27;20047;-62
2023/10/14 10:14:04;;;;;;;8.70;1.50;;;11.70;99.90;;;;;;5097025;27;20051;-62
2023/10/14 10:16:32;;;;;;;7.07;1.27;;;11.70;99.90;;;;;;5108991;27;20039;-62
2023/10/14 10:19:00;;;;;;;8.20;1.58;;;11.80;99.90;;;;;;5113430;27;20397;-62
2023/10/14 10:21:30;;;;;;;10.35;2.35;;;11.80;99.90;;;;;;5112748;27;20081;-62
2023/10/14 10:24:09;;;;;;;8.68;1.40;;;12.10;99.90;;;;;;5113938;27;20071;-63
2023/10/14 10:27:03;;;;;;;12.18;1.63;;;12.70;99.90;;;;;;5113891;27;20035;-62
2023/10/14 10:29:33;;;;;;;5.95;1.95;;;13.40;99.90;;;;;;5113612;27;20078;-63
2023/10/14 10:32:07;;;;;;;10.65;1.50;;;13.80;99.90;;;;;;5113615;27;20038;-63
2023/10/14 10:34:35;;;;;;;9.60;2.08;;;13.80;99.90;;;;;;5132174;27;20055;-62
2023/10/14 10:37:04;;;;;;;7.10;1.63;;;13.40;99.90;;;;;;5113812;27;20049;-62
2023/10/14 10:39:34;;;;;;;8.75;1.42;;;13.30;99.90;;;;;;5113360;27;20027;-62
2023/10/14 10:42:00;;;;;;;6.93;1.27;;;13.20;99.90;;;;;;5113538;27;20035;-61
2023/10/14 10:44:29;;;;;;;7.72;1.88;;;13.40;99.90;;;;;;5131954;27;20102;-62
2023/10/14 10:46:57;;;;;;;6.75;1.35;;;13.80;99.90;;;;;;5113646;27;20119;-62
2023/10/14 10:49:51;;;;;;;11.65;1.63;;;14.30;99.90;;;;;;5113750;27;20043;-62
2023/10/14 10:52:17;;;;;;;8.10;1.50;;;14.80;99.90;;;;;;5112641;27;20047;-62
2023/10/14 10:54:43;;;;;;;8.13;1.83;;;15.20;99.90;;;;;;5112012;27;20039;-62
2023/10/14 10:57:11;;;;;;;7.60;1.50;;;15.50;99.90;;;;;;5129604;27;20039;-62
2023/10/14 10:59:37;;;;;;;9.38;2.33;;;15.40;99.90;;;;;;5113441;27;20512;-62
2023/10/14 11:02:18;;;;;;;8.88;1.70;;;15.20;99.90;;;;;;5131362;27;20505;-62
2023/10/14 11:04:45;;;;;;;7.47;1.50;;;15.00;99.90;;;;;;5113432;27;20114;-62
2023/10/14 11:07:12;;;;;;;9.15;1.40;;;15.00;99.90;;;;;;5112784;27;20122;-62
2023/10/14 11:09:41;;;;;;;5.90;1.27;;;14.90;99.90;;;;;;5113310;27;20051;-62
2023/10/14 11:12:11;;;;;;;8.23;1.50;;;14.70;99.90;;;;;;5113333;27;20070;-62
2023/10/14 11:14:38;;;;;;;5.63;1.20;;;14.60;99.90;;;;;;5127127;27;20039;-62
2023/10/14 11:17:04;;;;;;;9.00;1.50;;;14.70;99.90;;;;;;5113275;27;20027;-62
2023/10/14 11:19:32;;;;;;;13.23;2.17;;;14.60;99.90;;;;;;5113265;27;20366;-62
2023/10/14 11:21:59;;;;;;;5.72;1.10;;;14.20;99.90;;;;;;5112794;27;20099;-62
2023/10/14 11:24:30;;;;;;;9.68;1.52;;;13.70;99.90;;;;;;5113130;27;20062;-62
2023/10/14 11:26:57;;;;;;;7.93;1.30;;;13.40;99.90;;;;;;5112915;28;20038;-62
2023/10/14 11:29:24;;;;;;;4.97;1.15;;;13.50;99.90;;;;;;5113215;27;20043;-62
2023/10/14 11:31:57;;;;;;;7.35;1.58;;;13.60;99.90;;;;;;5112375;27;20094;-62
2023/10/14 11:34:23;;;;;;;6.93;1.38;;;13.80;99.90;;;;;;5113328;28;20047;-63
2023/10/14 11:36:48;;;;;;;7.00;1.25;;;14.00;99.90;;;;;;5131249;27;20065;-63
2023/10/14 11:39:21;;;;;;;4.28;1.00;;;14.00;99.90;;;;;;5112735;27;20043;-63
2023/10/14 11:41:46;;;;;;;;;;;13.70;99.90;;;;;;5131545;27;20501;-62
2023/10/14 11:44:17;;;;;;;6.88;1.75;;;13.60;99.90;;;;;;5112421;28;19919;-62
2023/10/14 11:46:44;;;;;;;5.55;1.10;;;13.70;99.90;;;;;;5131361;28;20122;-62
2023/10/14 11:49:10;;;;;;;7.78;1.50;;;13.70;99.90;;;;;;5095616;28;20147;-64
2023/10/14 11:51:40;;;;;;;6.43;1.20;;;13.70;99.90;;;;;;5112608;28;20032;-62
2023/10/14 11:54:06;;;;;;;6.10;1.52;;;13.70;99.90;;;;;;5093815;28;20074;-62
2023/10/14 11:56:33;;;;;;;5.22;1.13;;;13.60;99.90;;;;;;5131054;28;20097;-62
2023/10/14 11:59:00;;;;;;;7.03;1.65;;;13.50;99.90;;;;;;5131185;28;20039;-62
2023/10/14 12:01:28;;;;;;;8.40;1.38;;;13.30;99.90;;;;;;5131043;28;20031;-62
2023/10/14 12:03:54;;;;;;;9.15;1.48;;;13.10;99.90;;;;;;5112975;27;20081;-62
2023/10/14 12:06:20;;;;;;;8.73;1.35;;;13.10;99.90;;;;;;5133267;27;20474;-62
2023/10/14 12:08:48;;;;;;;8.13;1.85;;;13.00;99.90;;;;;;5116984;27;20120;-62
2023/10/14 12:11:14;;;;;;;7.13;1.33;;;13.00;99.90;;;;;;5115876;27;20046;-63
2023/10/14 12:13:40;;;;;;;4.45;1.15;;;12.90;99.90;;;;;;5137808;27;20043;-62
2023/10/14 12:16:06;;;;;;;4.90;0.90;;;12.90;99.90;;;;;;5132670;27;20088;-62
2023/10/14 12:18:36;;;;;;;5.85;1.45;;;12.90;99.90;;;;;;5115393;27;20034;-62
2023/10/14 12:21:03;;;;;;;7.78;1.05;;;13.00;99.90;;;;;;5114547;27;20146;-62
2023/10/14 12:23:32;;;;;;;5.72;0.98;;;13.00;99.90;;;;;;5104843;27;20100;-63
2023/10/14 12:26:01;;;;;;;6.65;1.33;;;13.10;99.90;;;;;;5112484;27;20101;-62
2023/10/14 12:28:31;;;;;;;9.18;1.27;;;13.10;99.90;;;;;;5098710;27;20039;-62
2023/10/14 12:31:08;;;;;;;11.38;1.65;;;13.10;99.90;;;;;;5099458;27;20059;-62
2023/10/14 12:33:41;;;;;;;7.07;1.10;;;13.10;99.90;;;;;;5132828;27;20047;-62
2023/10/14 12:36:17;;;;;;;5.35;1.10;;;13.30;99.90;;;;;;5115642;27;20091;-62
2023/10/14 12:38:43;;;;;;;8.90;1.70;;;13.70;99.90;;;;;;5116495;27;20039;-62
2023/10/14 12:41:13;;;;;;;6.13;1.88;;;13.80;99.90;;;;;;5116101;27;20042;-62
2023/10/14 12:43:41;;;;;;;10.38;1.50;;;13.80;99.90;;;;;;5116166;27;20038;-62
2023/10/14 12:46:19;;;;;;;6.60;1.70;;;13.50;99.90;;;;;;5115076;27;20053;-63
2023/10/14 12:48:46;;;;;;;4.43;1.20;;;13.40;99.90;;;;;;5115725;27;20044;-62
2023/10/14 12:51:17;;;;;;;6.53;1.40;;;13.40;99.90;;;;;;5115314;27;20445;-62
2023/10/14 12:53:47;;;;;;;7.60;1.40;;;13.30;99.90;;;;;;5115647;27;20049;-62
2023/10/14 12:56:17;;;;;;;8.30;1.85;;;13.50;99.90;;;;;;5133770;27;20044;-62
2023/10/14 12:58:44;;;;;;;6.72;1.60;;;13.40;99.90;;;;;;5115563;27;20043;-62
2023/10/14 13:01:17;;;;;;;10.68;2.47;;;13.30;99.90;;;;;;5115629;27;20118;-62
2023/10/14 13:03:53;;;;;;;7.60;1.58;;;13.10;99.90;;;;;;5115691;27;20107;-62
2023/10/14 13:06:26;;;;;;;9.30;1.95;;;13.00;99.90;;;;;;5115220;27;20088;-63
2023/10/14 13:09:00;;;;;;;7.85;1.67;;;12.80;99.90;;;;;;5115742;27;20066;-63
2023/10/14 13:11:30;;;;;;;12.65;2.30;;;12.70;99.90;;;;;;5115146;27;20051;-64
2023/10/14 13:13:57;;;;;;;8.32;1.63;;;12.60;99.90;;;;;;5115217;27;20114;-63
2023/10/14 13:16:25;;;;;;;8.82;1.92;;;12.80;99.90;;;;;;5115097;27;20489;-63
2023/10/14 13:18:53;;;;;;;11.13;1.60;;;13.00;99.90;;;;;;5115169;27;20390;-63
2023/10/14 13:21:21;;;;;;;4.88;1.48;;;13.10;99.90;;;;;;5115290;27;20043;-63
2023/10/14 13:23:47;;;;;;;9.70;1.30;;;13.60;99.90;;;;;;5133857;27;20035;-64
2023/10/14 13:26:17;;;;;;;6.60;1.20;;;13.70;99.90;;;;;;5115207;27;20039;-63